Time,TemperatureF,DewpointF,PressureIn,WindDirection,WindDirectionDegrees,WindSpeedMPH,WindSpeedGustMPH,Humidity,HourlyPrecipIn,Conditions,Clouds,dailyrainin,SoftwareType,DateUTC
2013-03-05 00:02:00,33.0,-99.9,29.88,North,360,18.0,25.0,-999,-99.99,,,-99.99,,2013-03-05 05:02:00,
2013-03-05 00:12:00,33.0,-99.9,-100.00,North,353,17.0,22.0,-999,-99.99,,,-99.99,,2013-03-05 05:12:00,
2013-03-05 00:23:00,33.0,-99.9,-100.00,North,2,16.0,23.0,-999,-99.99,,,-99.99,,2013-03-05 05:23:00,
2013-03-05 00:32:00,33.0,-99.9,29.88,North,349,16.0,21.0,-999,-99.99,,,-99.99,,2013-03-05 05:32:00,
2013-03-05 00:42:00,33.0,-99.9,-100.00,North,351,16.0,20.0,-999,-99.99,,,-99.99,,2013-03-05 05:42:00,
2013-03-05 00:52:00,33.0,-99.9,-100.00,NNW,348,17.0,25.0,-999,-99.99,,,-99.99,,2013-03-05 05:52:00,
2013-03-05 01:02:00,33.0,-99.9,-100.00,NNW,346,16.0,20.0,-999,-99.99,,,-99.99,,2013-03-05 06:02:00,
2013-03-05 01:11:00,33.0,-99.9,-100.00,North,354,16.0,20.0,-999,-99.99,,,-99.99,,2013-03-05 06:11:00,
2013-03-05 01:22:00,33.0,-99.9,-100.00,NNW,345,17.0,22.0,-999,-99.99,,,-99.99,,2013-03-05 06:22:00,
2013-03-05 01:32:00,33.0,-99.9,29.90,North,350,16.0,21.0,-999,-99.99,,,-99.99,,2013-03-05 06:32:00,
2013-03-05 01:42:00,33.0,-99.9,-100.00,North,351,16.0,19.0,-999,-99.99,,,-99.99,,2013-03-05 06:42:00,
2013-03-05 01:52:00,33.0,-99.9,-100.00,North,358,18.0,22.0,-999,-99.99,,,-99.99,,2013-03-05 06:52:00,
2013-03-05 02:01:00,33.0,-99.9,29.90,North,355,15.0,20.0,-999,-99.99,,,-99.99,,2013-03-05 07:01:00,
2013-03-05 02:11:00,33.0,-99.9,-100.00,North,355,15.0,20.0,-999,-99.99,,,-99.99,,2013-03-05 07:11:00,
2013-03-05 02:22:00,33.0,-99.9,-100.00,North,351,17.0,22.0,-999,-99.99,,,-99.99,,2013-03-05 07:22:00,
2013-03-05 02:32:00,33.0,-99.9,-100.00,NNW,345,16.0,19.0,-999,-99.99,,,-99.99,,2013-03-05 07:32:00,
2013-03-05 02:42:00,33.0,-99.9,-100.00,NNW,348,16.0,21.0,-999,-99.99,,,-99.99,,2013-03-05 07:42:00,
2013-03-05 02:52:00,33.0,-99.9,-100.00,NNW,346,15.0,21.0,-999,-99.99,,,-99.99,,2013-03-05 07:52:00,
2013-03-05 03:02:00,33.0,-99.9,29.91,NNW,345,14.0,18.0,-999,-99.99,,,-99.99,,2013-03-05 08:02:00,
2013-03-05 03:11:00,33.0,-99.9,-100.00,North,351,13.0,17.0,-999,-99.99,,,-99.99,,2013-03-05 08:11:00,
2013-03-05 03:22:00,33.0,-99.9,-100.00,North,6,13.0,17.0,-999,-99.99,,,-99.99,,2013-03-05 08:22:00,
2013-03-05 03:32:00,33.0,-99.9,29.90,NNW,347,16.0,19.0,-999,-99.99,,,-99.99,,2013-03-05 08:32:00,
2013-03-05 03:42:00,33.0,-99.9,-100.00,North,356,14.0,17.0,-999,-99.99,,,-99.99,,2013-03-05 08:42:00,
2013-03-05 03:52:00,33.0,-99.9,-100.00,North,359,13.0,18.0,-999,-99.99,,,-99.99,,2013-03-05 08:52:00,
2013-03-05 04:02:00,33.0,-99.9,29.90,NNW,344,13.0,17.0,-999,-99.99,,,-99.99,,2013-03-05 09:02:00,
2013-03-05 04:11:00,33.0,-99.9,-100.00,North,355,13.0,17.0,-999,-99.99,,,-99.99,,2013-03-05 09:11:00,
2013-03-05 04:22:00,32.0,-99.9,-100.00,North,356,14.0,17.0,-999,-99.99,,,-99.99,,2013-03-05 09:22:00,
2013-03-05 04:32:00,33.0,-99.9,29.91,North,355,14.0,17.0,-999,-99.99,,,-99.99,,2013-03-05 09:32:00,
2013-03-05 04:43:00,33.0,-99.9,-100.00,North,350,15.0,18.0,-999,-99.99,,,-99.99,,2013-03-05 09:43:00,
2013-03-05 04:52:00,32.0,-99.9,-100.00,North,351,14.0,19.0,-999,-99.99,,,-99.99,,2013-03-05 09:52:00,
2013-03-05 05:02:00,32.0,-99.9,29.92,North,359,12.0,15.0,-999,-99.99,,,-99.99,,2013-03-05 10:02:00,
2013-03-05 05:12:00,32.0,-99.9,-100.00,North,354,11.0,15.0,-999,-99.99,,,-99.99,,2013-03-05 10:12:00,
2013-03-05 05:22:00,32.0,-99.9,-100.00,NNE,12,10.0,14.0,-999,-99.99,,,-99.99,,2013-03-05 10:22:00,
2013-03-05 05:32:00,32.0,-99.9,29.93,North,7,11.0,15.0,-999,-99.99,,,-99.99,,2013-03-05 10:32:00,
2013-03-05 05:42:00,32.0,-99.9,-100.00,NNE,14,10.0,13.0,-999,-99.99,,,-99.99,,2013-03-05 10:42:00,
2013-03-05 05:52:00,32.0,-99.9,-100.00,NNE,12,10.0,13.0,-999,-99.99,,,-99.99,,2013-03-05 10:52:00,
2013-03-05 06:02:00,32.0,-99.9,-100.00,NNE,14,8.0,12.0,-999,-99.99,,,-99.99,,2013-03-05 11:02:00,
2013-03-05 06:12:00,32.0,-99.9,-100.00,North,11,9.0,12.0,-999,-99.99,,,-99.99,,2013-03-05 11:12:00,
2013-03-05 06:22:00,32.0,-99.9,-100.00,North,11,11.0,13.0,-999,-99.99,,,-99.99,,2013-03-05 11:22:00,
2013-03-05 06:32:00,32.0,-99.9,29.95,NNE,14,10.0,14.0,-999,-99.99,,,-99.99,,2013-03-05 11:32:00,
2013-03-05 06:42:00,32.0,-99.9,-100.00,North,6,10.0,13.0,-999,-99.99,,,-99.99,,2013-03-05 11:42:00,
2013-03-05 06:52:00,32.0,-99.9,-100.00,NNE,15,12.0,14.0,-999,-99.99,,,-99.99,,2013-03-05 11:52:00,
2013-03-05 07:03:00,32.0,-99.9,29.96,North,10,13.0,17.0,-999,-99.99,,,-99.99,,2013-03-05 12:03:00,
2013-03-05 07:12:00,32.0,-99.9,-100.00,NNW,346,11.0,15.0,-999,-99.99,,,-99.99,,2013-03-05 12:12:00,
2013-03-05 07:22:00,32.0,-99.9,-100.00,NNW,342,11.0,13.0,-999,-99.99,,,-99.99,,2013-03-05 12:22:00,
2013-03-05 07:32:00,32.0,-99.9,-100.00,NNW,347,11.0,14.0,-999,-99.99,,,-99.99,,2013-03-05 12:32:00,
2013-03-05 07:42:00,32.0,-99.9,-100.00,North,350,10.0,13.0,-999,-99.99,,,-99.99,,2013-03-05 12:42:00,
2013-03-05 07:53:00,33.0,-99.9,-100.00,NNW,341,10.0,13.0,-999,-99.99,,,-99.99,,2013-03-05 12:53:00,
2013-03-05 08:02:00,33.0,-99.9,29.98,NNW,345,11.0,13.0,-999,-99.99,,,-99.99,,2013-03-05 13:02:00,
2013-03-05 08:12:00,33.0,-99.9,-100.00,North,2,10.0,13.0,-999,-99.99,,,-99.99,,2013-03-05 13:12:00,
2013-03-05 08:22:00,33.0,-99.9,-100.00,NNE,13,9.0,14.0,-999,-99.99,,,-99.99,,2013-03-05 13:22:00,
2013-03-05 08:32:00,33.0,-99.9,29.99,North,8,11.0,15.0,-999,-99.99,,,-99.99,,2013-03-05 13:32:00,
2013-03-05 08:42:00,34.0,-99.9,-100.00,North,11,10.0,14.0,-999,-99.99,,,-99.99,,2013-03-05 13:42:00,
2013-03-05 08:52:00,34.0,-99.9,-100.00,NNE,13,9.0,14.0,-999,-99.99,,,-99.99,,2013-03-05 13:52:00,
2013-03-05 09:02:00,34.0,-99.9,29.99,NNE,15,11.0,17.0,-999,-99.99,,,-99.99,,2013-03-05 14:02:00,
2013-03-05 09:11:00,35.0,-99.9,-100.00,North,4,11.0,13.0,-999,-99.99,,,-99.99,,2013-03-05 14:11:00,
2013-03-05 09:22:00,35.0,-99.9,-100.00,North,360,11.0,15.0,-999,-99.99,,,-99.99,,2013-03-05 14:22:00,
2013-03-05 09:32:00,35.0,-99.9,-100.00,NNE,14,10.0,13.0,-999,-99.99,,,-99.99,,2013-03-05 14:32:00,
2013-03-05 09:42:00,35.0,-99.9,-100.00,NNE,14,8.0,13.0,-999,-99.99,,,-99.99,,2013-03-05 14:42:00,
2013-03-05 09:52:00,36.0,-99.9,-100.00,NNE,13,9.0,14.0,-999,-99.99,,,-99.99,,2013-03-05 14:52:00,
2013-03-05 10:02:00,36.0,-99.9,29.99,NNE,15,11.0,14.0,-999,-99.99,,,-99.99,,2013-03-05 15:02:00,
2013-03-05 10:11:00,36.0,-99.9,-100.00,NNE,13,12.0,15.0,-999,-99.99,,,-99.99,,2013-03-05 15:11:00,
2013-03-05 10:22:00,37.0,-99.9,-100.00,NNE,14,10.0,15.0,-999,-99.99,,,-99.99,,2013-03-05 15:22:00,
2013-03-05 10:32:00,37.0,-99.9,29.99,NNE,17,12.0,15.0,-999,-99.99,,,-99.99,,2013-03-05 15:32:00,
2013-03-05 10:42:00,37.0,-99.9,-100.00,NNE,15,11.0,16.0,-999,-99.99,,,-99.99,,2013-03-05 15:42:00,
2013-03-05 10:52:00,37.0,-99.9,-100.00,NNE,16,9.0,14.0,-999,-99.99,,,-99.99,,2013-03-05 15:52:00,
2013-03-05 11:02:00,38.0,-99.9,-100.00,NNE,16,9.0,14.0,-999,-99.99,,,-99.99,,2013-03-05 16:02:00,
2013-03-05 11:11:00,38.0,-99.9,-100.00,NNE,14,11.0,17.0,-999,-99.99,,,-99.99,,2013-03-05 16:11:00,
2013-03-05 11:22:00,38.0,-99.9,-100.00,NNE,14,10.0,15.0,-999,-99.99,,,-99.99,,2013-03-05 16:22:00,
2013-03-05 11:32:00,38.0,-99.9,29.97,NNE,16,9.0,15.0,-999,-99.99,,,-99.99,,2013-03-05 16:32:00,
2013-03-05 11:42:00,38.0,-99.9,-100.00,NNE,13,11.0,16.0,-999,-99.99,,,-99.99,,2013-03-05 16:42:00,
2013-03-05 11:52:00,39.0,-99.9,-100.00,NNE,13,8.0,14.0,-999,-99.99,,,-99.99,,2013-03-05 16:52:00,
2013-03-05 12:01:00,39.0,-99.9,29.97,NNE,15,10.0,13.0,-999,-99.99,,,-99.99,,2013-03-05 17:01:00,
2013-03-05 12:11:00,40.0,-99.9,-100.00,NNE,14,7.0,13.0,-999,-99.99,,,-99.99,,2013-03-05 17:11:00,
2013-03-05 12:22:00,40.0,-99.9,-100.00,NNE,16,7.0,13.0,-999,-99.99,,,-99.99,,2013-03-05 17:22:00,
2013-03-05 12:32:00,40.0,-99.9,29.97,NNE,14,8.0,10.0,-999,-99.99,,,-99.99,,2013-03-05 17:32:00,
2013-03-05 12:42:00,41.0,-99.9,-100.00,NNE,13,7.0,11.0,-999,-99.99,,,-99.99,,2013-03-05 17:42:00,
2013-03-05 12:53:00,41.0,-99.9,-100.00,NNE,14,7.0,10.0,-999,-99.99,,,-99.99,,2013-03-05 17:53:00,
2013-03-05 13:02:00,41.0,-99.9,29.96,NNE,16,7.0,10.0,-999,-99.99,,,-99.99,,2013-03-05 18:02:00,
2013-03-05 13:12:00,42.0,-99.9,-100.00,North,11,7.0,11.0,-999,-99.99,,,-99.99,,2013-03-05 18:12:00,
2013-03-05 13:22:00,42.0,-99.9,-100.00,NNE,14,5.0,6.0,-999,-99.99,,,-99.99,,2013-03-05 18:22:00,
2013-03-05 13:32:00,42.0,-99.9,29.96,NNE,15,3.0,7.0,-999,-99.99,,,-99.99,,2013-03-05 18:32:00,
2013-03-05 13:42:00,43.0,-99.9,-100.00,NNE,13,4.0,7.0,-999,-99.99,,,-99.99,,2013-03-05 18:42:00,
2013-03-05 13:53:00,43.0,-99.9,-100.00,North,2,3.0,6.0,-999,-99.99,,,-99.99,,2013-03-05 18:53:00,
2013-03-05 14:11:00,43.0,-99.9,-100.00,NW,309,2.0,2.0,-999,-99.99,,,-99.99,,2013-03-05 19:11:00,
2013-03-05 14:22:00,42.0,-99.9,-100.00,WSW,243,3.0,3.0,-999,-99.99,,,-99.99,,2013-03-05 19:22:00,
2013-03-05 14:32:00,42.0,-99.9,29.97,SW,236,2.0,3.0,-999,-99.99,,,-99.99,,2013-03-05 19:32:00,
2013-03-05 14:42:00,44.0,-99.9,-100.00,NW,306,1.0,2.0,-999,-99.99,,,-99.99,,2013-03-05 19:42:00,
2013-03-05 14:52:00,45.0,-99.9,-100.00,NNW,334,2.0,2.0,-999,-99.99,,,-99.99,,2013-03-05 19:52:00,
2013-03-05 15:02:00,45.0,-99.9,-100.00,NW,319,2.0,4.0,-999,-99.99,,,-99.99,,2013-03-05 20:02:00,
2013-03-05 15:12:00,45.0,-99.9,-100.00,North,3,2.0,4.0,-999,-99.99,,,-99.99,,2013-03-05 20:12:00,
2013-03-05 15:22:00,45.0,-99.9,-100.00,North,5,4.0,7.0,-999,-99.99,,,-99.99,,2013-03-05 20:22:00,
2013-03-05 15:32:00,46.0,-99.9,29.96,NNW,348,2.0,4.0,-999,-99.99,,,-99.99,,2013-03-05 20:32:00,
2013-03-05 15:42:00,44.0,-99.9,-100.00,WSW,247,3.0,3.0,-999,-99.99,,,-99.99,,2013-03-05 20:42:00,
2013-03-05 15:52:00,44.0,-99.9,-100.00,SW,229,2.0,3.0,-999,-99.99,,,-99.99,,2013-03-05 20:52:00,
2013-03-05 16:02:00,44.0,-99.9,29.96,SSW,208,2.0,3.0,-999,-99.99,,,-99.99,,2013-03-05 21:02:00,
2013-03-05 16:11:00,46.0,-99.9,-100.00,NNW,348,2.0,4.0,-999,-99.99,,,-99.99,,2013-03-05 21:11:00,
2013-03-05 16:22:00,46.0,-99.9,-100.00,NW,307,2.0,5.0,-999,-99.99,,,-99.99,,2013-03-05 21:22:00,
2013-03-05 16:32:00,47.0,-99.9,29.96,NNW,329,1.0,2.0,-999,-99.99,,,-99.99,,2013-03-05 21:32:00,
2013-03-05 16:42:00,45.0,-99.9,-100.00,WSW,247,1.0,3.0,-999,-99.99,,,-99.99,,2013-03-05 21:42:00,
2013-03-05 16:53:00,45.0,-99.9,-100.00,West,273,3.0,3.0,-999,-99.99,,,-99.99,,2013-03-05 21:53:00,
2013-03-05 17:02:00,45.0,-99.9,-100.00,WNW,286,3.0,5.0,-999,-99.99,,,-99.99,,2013-03-05 22:02:00,
2013-03-05 17:12:00,45.0,-99.9,-100.00,NW,310,2.0,4.0,-999,-99.99,,,-99.99,,2013-03-05 22:12:00,
2013-03-05 17:22:00,47.0,-99.9,-100.00,NNW,336,3.0,3.0,-999,-99.99,,,-99.99,,2013-03-05 22:22:00,
2013-03-05 17:32:00,46.0,-99.9,29.95,North,5,3.0,4.0,-999,-99.99,,,-99.99,,2013-03-05 22:32:00,
2013-03-05 17:42:00,45.0,-99.9,-100.00,SW,220,1.0,2.0,-999,-99.99,,,-99.99,,2013-03-05 22:42:00,
2013-03-05 17:52:00,45.0,-99.9,-100.00,West,277,1.0,2.0,-999,-99.99,,,-99.99,,2013-03-05 22:52:00,
2013-03-05 18:01:00,46.0,-99.9,29.96,NNW,332,1.0,2.0,-999,-99.99,,,-99.99,,2013-03-05 23:01:00,
2013-03-05 18:11:00,44.0,-99.9,-100.00,NNE,18,2.0,2.0,-999,-99.99,,,-99.99,,2013-03-05 23:11:00,
2013-03-05 18:22:00,44.0,-99.9,-100.00,ENE,75,0.0,2.0,-999,-99.99,,,-99.99,,2013-03-05 23:22:00,
2013-03-05 18:32:00,44.0,-99.9,29.97,North,9,1.0,4.0,-999,-99.99,,,-99.99,,2013-03-05 23:32:00,
2013-03-05 18:42:00,43.0,-99.9,-100.00,South,174,1.0,2.0,-999,-99.99,,,-99.99,,2013-03-05 23:42:00,
2013-03-05 18:53:00,42.0,-99.9,-100.00,SE,141,-999.0,1.0,-999,-99.99,,,-99.99,,2013-03-05 23:53:00,
2013-03-05 19:02:00,42.0,-99.9,29.98,North,10,1.0,2.0,-999,-99.99,,,-99.99,,2013-03-06 00:02:00,
2013-03-05 19:11:00,41.0,-99.9,-100.00,NNE,17,1.0,2.0,-999,-99.99,,,-99.99,,2013-03-06 00:11:00,
2013-03-05 19:22:00,41.0,-99.9,-100.00,NNE,17,0.0,1.0,-999,-99.99,,,-99.99,,2013-03-06 00:22:00,
2013-03-05 19:32:00,42.0,-99.9,29.98,ENE,72,1.0,1.0,-999,-99.99,,,-99.99,,2013-03-06 00:32:00,
2013-03-05 19:42:00,42.0,-99.9,-100.00,SSE,163,1.0,2.0,-999,-99.99,,,-99.99,,2013-03-06 00:42:00,
2013-03-05 19:52:00,42.0,-99.9,-100.00,South,183,2.0,2.0,-999,-99.99,,,-99.99,,2013-03-06 00:52:00,
2013-03-05 20:02:00,40.0,-99.9,29.99,SW,219,2.0,3.0,-999,-99.99,,,-99.99,,2013-03-06 01:02:00,
2013-03-05 20:11:00,41.0,-99.9,-100.00,SE,125,1.0,4.0,-999,-99.99,,,-99.99,,2013-03-06 01:11:00,
2013-03-05 20:22:00,41.0,-99.9,-100.00,South,178,1.0,2.0,-999,-99.99,,,-99.99,,2013-03-06 01:22:00,
2013-03-05 20:32:00,41.0,-99.9,29.99,SE,142,2.0,2.0,-999,-99.99,,,-99.99,,2013-03-06 01:32:00,
2013-03-05 20:42:00,41.0,-99.9,-100.00,South,171,1.0,2.0,-999,-99.99,,,-99.99,,2013-03-06 01:42:00,
2013-03-05 20:52:00,41.0,-99.9,-100.00,SE,139,1.0,2.0,-999,-99.99,,,-99.99,,2013-03-06 01:52:00,
2013-03-05 21:01:00,41.0,-99.9,29.98,SE,137,1.0,2.0,-999,-99.99,,,-99.99,,2013-03-06 02:01:00,
2013-03-05 21:11:00,40.0,-99.9,-100.00,ENE,76,-999.0,2.0,-999,-99.99,,,-99.99,,2013-03-06 02:11:00,
2013-03-05 21:22:00,40.0,-99.9,-100.00,ENE,71,1.0,2.0,-999,-99.99,,,-99.99,,2013-03-06 02:22:00,
2013-03-05 21:32:00,40.0,-99.9,-100.00,SSE,150,1.0,2.0,-999,-99.99,,,-99.99,,2013-03-06 02:32:00,
2013-03-05 21:42:00,40.0,-99.9,-100.00,East,95,1.0,2.0,-999,-99.99,,,-99.99,,2013-03-06 02:42:00,
2013-03-05 21:52:00,40.0,-99.9,-100.00,East,83,1.0,3.0,-999,-99.99,,,-99.99,,2013-03-06 02:52:00,
2013-03-05 22:02:00,40.0,-99.9,29.99,ENE,63,1.0,2.0,-999,-99.99,,,-99.99,,2013-03-06 03:02:00,
2013-03-05 22:12:00,38.0,-99.9,-100.00,SSW,199,2.0,3.0,-999,-99.99,,,-99.99,,2013-03-06 03:12:00,
2013-03-05 22:22:00,39.0,-99.9,-100.00,South,172,2.0,2.0,-999,-99.99,,,-99.99,,2013-03-06 03:22:00,
2013-03-05 22:32:00,39.0,-99.9,29.99,South,176,2.0,3.0,-999,-99.99,,,-99.99,,2013-03-06 03:32:00,
2013-03-05 22:42:00,39.0,-99.9,-100.00,South,171,2.0,3.0,-999,-99.99,,,-99.99,,2013-03-06 03:42:00,
2013-03-05 22:53:00,40.0,-99.9,-100.00,South,178,3.0,4.0,-999,-99.99,,,-99.99,,2013-03-06 03:53:00,
2013-03-05 23:02:00,40.0,-99.9,29.99,SSE,168,3.0,5.0,-999,-99.99,,,-99.99,,2013-03-06 04:02:00,
2013-03-05 23:11:00,40.0,-99.9,-100.00,South,176,3.0,5.0,-999,-99.99,,,-99.99,,2013-03-06 04:11:00,
2013-03-05 23:22:00,40.0,-99.9,-100.00,SSE,168,2.0,5.0,-999,-99.99,,,-99.99,,2013-03-06 04:22:00,
2013-03-05 23:32:00,40.0,-99.9,-100.00,South,179,4.0,6.0,-999,-99.99,,,-99.99,,2013-03-06 04:32:00,
2013-03-05 23:42:00,40.0,-99.9,-100.00,SSE,161,2.0,5.0,-999,-99.99,,,-99.99,,2013-03-06 04:42:00,
2013-03-05 23:52:00,40.0,-99.9,-100.00,South,177,1.0,4.0,-999,-99.99,,,-99.99,,2013-03-06 04:52:00,